Time;durP1;ratioP1;P1;durP2;ratioP2;P2;SDS_P1;SDS_P2;PMS_P1;PMS_P2;Temp;Humidity;BMP_temperature;BMP_pressure;BME280_temperature;BME280_humidity;BME280_pressure;Samples;Min_cycle;Max_cycle;Signal;HPM_P1;HPM_P2
2022/08/24 00:01:04;;;;;;;2.63;2.43;;;30.40;70.80;;;;;;5117465;28;20460;-66
2022/08/24 00:03:35;;;;;;;1.73;1.63;;;30.30;71.50;;;;;;5117612;28;20490;-66
2022/08/24 00:06:09;;;;;;;2.80;2.60;;;30.30;70.40;;;;;;5120608;28;20452;-66
2022/08/24 00:08:41;;;;;;;2.13;1.97;;;30.20;70.60;;;;;;5110846;28;20569;-66
2022/08/24 00:11:12;;;;;;;2.20;2.00;;;30.10;71.70;;;;;;5119470;28;20571;-65
2022/08/24 00:13:43;;;;;;;2.43;2.23;;;30.10;72.20;;;;;;5112336;28;20479;-66
2022/08/24 00:16:15;;;;;;;2.73;2.53;;;30.20;71.70;;;;;;5122379;28;20441;-66
2022/08/24 00:18:46;;;;;;;2.17;2.07;;;30.10;70.80;;;;;;5114857;28;20568;-66
2022/08/24 00:21:19;;;;;;;2.60;2.40;;;30.00;72.50;;;;;;5108115;28;20492;-66
2022/08/24 00:23:50;;;;;;;2.53;2.33;;;30.00;72.20;;;;;;5105271;28;20462;-66
2022/08/24 00:26:21;;;;;;;2.50;2.27;;;30.00;71.70;;;;;;5100279;28;20602;-67
2022/08/24 00:28:58;;;;;;;2.60;2.40;;;29.90;71.70;;;;;;5111931;28;20459;-66
2022/08/24 00:31:36;;;;;;;2.57;2.37;;;29.80;71.90;;;;;;5100228;28;20465;-66
2022/08/24 00:34:07;;;;;;;2.90;2.60;;;29.70;71.10;;;;;;5099904;28;20468;-66
2022/08/24 00:36:39;;;;;;;2.60;2.40;;;29.60;72.30;;;;;;5113449;28;20452;-64
2022/08/24 00:39:10;;;;;;;2.83;2.53;;;29.70;71.80;;;;;;5112453;28;20503;-65
2022/08/24 00:41:43;;;;;;;4.03;2.10;;;29.60;72.40;;;;;;5103169;28;20478;-64
2022/08/24 00:44:15;;;;;;;2.63;2.43;;;29.50;71.90;;;;;;5122206;28;20475;-64
2022/08/24 00:46:49;;;;;;;3.00;2.80;;;29.50;73.40;;;;;;5102400;28;20460;-64
2022/08/24 00:49:27;;;;;;;2.33;2.13;;;29.50;71.90;;;;;;5116806;28;20580;-66
2022/08/24 00:52:06;;;;;;;2.60;2.40;;;29.50;73.10;;;;;;5098064;28;20468;-68
2022/08/24 00:54:49;;;;;;;2.30;2.20;;;29.40;73.40;;;;;;5122041;28;20464;-65
2022/08/24 00:57:23;;;;;;;2.37;2.23;;;29.40;72.80;;;;;;5113210;28;20462;-64
2022/08/24 00:59:57;;;;;;;2.50;2.30;;;29.40;73.40;;;;;;5115377;28;20519;-65
2022/08/24 01:02:32;;;;;;;2.60;2.40;;;29.40;74.50;;;;;;5090240;28;20465;-64
2022/08/24 01:05:06;;;;;;;2.27;2.07;;;29.30;74.40;;;;;;5116464;28;20462;-66
2022/08/24 01:07:39;;;;;;;2.00;1.90;;;29.40;74.30;;;;;;5105495;28;20495;-65
2022/08/24 01:10:13;;;;;;;1.80;1.70;;;29.30;74.90;;;;;;5099914;28;20573;-65
2022/08/24 01:12:48;;;;;;;2.00;1.90;;;29.30;74.90;;;;;;5113473;28;20470;-67
2022/08/24 01:15:30;;;;;;;2.40;2.30;;;29.30;75.10;;;;;;5125333;28;20598;-64
2022/08/24 01:20:57;;;;;;;2.07;1.90;;;29.30;74.50;;;;;;5096225;28;20460;-68
2022/08/24 01:23:40;;;;;;;2.90;2.70;;;29.20;74.80;;;;;;5108818;28;20467;-70
2022/08/24 01:26:17;;;;;;;2.70;2.50;;;29.10;75.10;;;;;;5121211;28;20487;-69
2022/08/24 01:28:51;;;;;;;2.77;2.57;;;29.10;75.80;;;;;;5099289;28;20466;-67
2022/08/24 01:31:22;;;;;;;2.10;2.00;;;29.00;76.00;;;;;;5120131;28;20465;-67
2022/08/24 01:33:55;;;;;;;2.30;2.10;;;29.00;75.70;;;;;;5110619;28;20524;-68
2022/08/24 01:36:32;;;;;;;4.10;2.53;;;29.00;76.60;;;;;;5103792;28;20464;-71
2022/08/24 01:39:10;;;;;;;2.30;2.10;;;29.00;76.60;;;;;;5095365;28;20500;-69
2022/08/24 01:41:41;;;;;;;2.60;2.40;;;28.90;75.40;;;;;;5105850;28;20474;-65
2022/08/24 01:44:12;;;;;;;1.97;1.87;;;28.90;75.90;;;;;;5121522;28;20463;-66
2022/08/24 01:46:45;;;;;;;1.83;1.73;;;28.70;76.20;;;;;;5121679;28;20462;-66
2022/08/24 01:49:16;;;;;;;2.10;2.00;;;28.60;76.70;;;;;;5096337;28;20457;-67
2022/08/24 01:51:47;;;;;;;2.70;2.50;;;28.60;76.90;;;;;;5113726;28;20469;-66
2022/08/24 01:54:20;;;;;;;2.03;1.93;;;28.60;77.80;;;;;;5121091;28;20455;-66
2022/08/24 01:56:50;;;;;;;2.00;1.90;;;28.50;77.50;;;;;;5108007;28;20459;-67
2022/08/24 01:59:24;;;;;;;1.70;1.60;;;28.40;77.50;;;;;;5118243;28;20473;-67
2022/08/24 02:01:59;;;;;;;2.50;2.40;;;28.40;77.40;;;;;;5114655;28;20518;-68
2022/08/24 02:04:29;;;;;;;2.30;2.13;;;28.30;78.00;;;;;;5099406;28;20779;-67
2022/08/24 02:07:00;;;;;;;2.27;2.13;;;28.20;77.80;;;;;;5111476;28;20456;-68
2022/08/24 02:09:34;;;;;;;2.70;2.50;;;28.10;78.20;;;;;;5092994;28;20448;-69
2022/08/24 02:12:06;;;;;;;2.27;2.13;;;28.00;78.70;;;;;;5109788;28;20447;-70
2022/08/24 02:14:37;;;;;;;2.30;2.20;;;27.90;80.30;;;;;;5100473;28;20455;-69
2022/08/24 02:17:10;;;;;;;2.47;2.30;;;27.80;78.60;;;;;;5101339;28;20458;-68
2022/08/24 02:19:40;;;;;;;2.60;1.60;;;27.70;78.80;;;;;;5112232;28;20497;-66
2022/08/24 02:22:11;;;;;;;2.20;2.00;;;27.70;79.30;;;;;;5101021;28;20449;-66
2022/08/24 02:24:44;;;;;;;2.30;2.20;;;27.70;79.50;;;;;;5103533;28;20465;-66
2022/08/24 02:27:15;;;;;;;2.50;2.30;;;27.70;79.80;;;;;;5102765;28;20455;-66
2022/08/24 02:29:46;;;;;;;2.60;2.40;;;27.60;80.00;;;;;;5114928;28;20469;-67
2022/08/24 02:32:17;;;;;;;1.93;1.83;;;27.60;80.60;;;;;;5111863;28;20461;-67
2022/08/24 02:34:48;;;;;;;2.20;2.00;;;27.50;80.80;;;;;;5115130;28;20489;-67
2022/08/24 02:37:23;;;;;;;2.00;1.90;;;27.40;81.10;;;;;;5097489;28;20556;-67
2022/08/24 02:39:56;;;;;;;2.37;2.20;;;27.30;81.00;;;;;;5123541;28;20594;-67
2022/08/24 02:42:26;;;;;;;2.13;2.03;;;27.30;81.60;;;;;;5098679;28;20490;-67
2022/08/24 02:44:57;;;;;;;1.80;1.70;;;27.10;82.10;;;;;;5102935;28;20468;-67
2022/08/24 02:47:29;;;;;;;2.23;2.13;;;27.00;82.60;;;;;;5101200;28;20463;-67
2022/08/24 02:50:11;;;;;;;2.20;2.00;;;26.90;83.60;;;;;;5114890;28;20632;-67
2022/08/24 02:52:43;;;;;;;1.90;1.80;;;26.80;84.20;;;;;;5103505;28;20458;-67
2022/08/24 02:55:18;;;;;;;2.37;2.17;;;26.80;84.90;;;;;;5118716;28;20821;-68
2022/08/24 02:57:49;;;;;;;1.90;1.77;;;26.70;85.20;;;;;;5090519;28;20498;-67
2022/08/24 03:00:23;;;;;;;2.57;2.30;;;26.70;86.00;;;;;;5100852;28;20501;-66
2022/08/24 03:02:55;;;;;;;2.07;1.90;;;26.70;85.90;;;;;;5117504;28;20456;-67
2022/08/24 03:05:27;;;;;;;2.40;2.20;;;26.70;86.10;;;;;;5087011;28;20544;-67
2022/08/24 03:07:58;;;;;;;2.43;2.23;;;26.60;86.60;;;;;;5101136;28;20465;-66
2022/08/24 03:10:31;;;;;;;2.10;2.00;;;26.60;87.10;;;;;;5101534;28;20905;-65
2022/08/24 03:13:02;;;;;;;2.00;1.90;;;26.40;87.50;;;;;;5103198;28;21210;-64
2022/08/24 03:15:33;;;;;;;1.93;1.83;;;26.40;87.60;;;;;;5105452;28;20774;-67
2022/08/24 03:18:04;;;;;;;2.27;2.17;;;26.30;88.40;;;;;;5101089;28;20465;-67
2022/08/24 03:20:35;;;;;;;2.07;1.97;;;26.20;88.70;;;;;;5100948;28;20996;-66
2022/08/24 03:23:06;;;;;;;2.50;2.30;;;26.10;89.70;;;;;;5115631;28;20492;-67
2022/08/24 03:25:38;;;;;;;2.00;1.90;;;26.10;89.80;;;;;;5103440;28;21249;-66
2022/08/24 03:28:09;;;;;;;2.20;2.10;;;26.00;90.40;;;;;;5111736;28;20493;-68
2022/08/24 03:30:42;;;;;;;1.53;1.43;;;25.90;90.10;;;;;;5102838;28;20465;-66
2022/08/24 03:33:17;;;;;;;2.00;1.83;;;25.80;90.40;;;;;;5089725;28;20824;-67
2022/08/24 03:35:48;;;;;;;2.17;2.07;;;25.80;90.60;;;;;;5112762;28;20800;-66
2022/08/24 03:38:20;;;;;;;2.10;1.90;;;25.80;90.90;;;;;;5114513;28;20458;-66
2022/08/24 03:40:52;;;;;;;1.90;1.77;;;25.70;91.00;;;;;;5103186;28;20504;-66
2022/08/24 03:46:11;;;;;;;1.60;1.50;;;25.60;91.40;;;;;;5103280;28;20467;-66
2022/08/24 03:48:43;;;;;;;2.30;2.10;;;25.60;91.50;;;;;;5110393;28;20494;-66
2022/08/24 03:51:16;;;;;;;1.90;1.80;;;25.60;91.70;;;;;;5098064;28;20468;-66
2022/08/24 03:53:47;;;;;;;3.23;2.00;;;25.60;91.50;;;;;;5092925;28;20935;-67
2022/08/24 03:56:19;;;;;;;2.03;1.83;;;25.60;91.80;;;;;;5116192;28;20968;-66
2022/08/24 03:58:50;;;;;;;1.50;1.40;;;25.50;92.00;;;;;;5119246;28;20792;-65
2022/08/24 04:01:21;;;;;;;1.83;1.73;;;25.40;92.00;;;;;;5103703;28;20455;-68
2022/08/24 04:03:54;;;;;;;1.57;1.47;;;25.30;92.30;;;;;;5093102;28;20950;-66
2022/08/24 04:06:24;;;;;;;1.63;1.53;;;25.20;92.50;;;;;;5121269;28;20516;-68
2022/08/24 04:08:56;;;;;;;1.70;1.60;;;25.20;92.60;;;;;;5101802;28;20456;-67
2022/08/24 04:11:30;;;;;;;2.00;1.80;;;25.10;92.70;;;;;;5119313;28;20562;-67
2022/08/24 04:14:00;;;;;;;1.80;1.70;;;25.00;92.90;;;;;;5090410;28;20446;-67
2022/08/24 04:16:31;;;;;;;2.00;1.53;;;25.00;93.10;;;;;;5110836;28;20465;-67
2022/08/24 04:19:02;;;;;;;1.70;1.60;;;24.80;93.40;;;;;;5098597;28;20468;-67
2022/08/24 04:21:35;;;;;;;2.20;2.00;;;24.80;93.60;;;;;;5111799;28;20577;-67
2022/08/24 04:24:09;;;;;;;1.50;1.40;;;24.70;93.70;;;;;;5090719;28;20462;-67
2022/08/24 04:26:42;;;;;;;1.50;1.40;;;24.60;94.20;;;;;;5096777;28;20465;-67
2022/08/24 04:29:18;;;;;;;1.60;1.30;;;24.60;94.30;;;;;;5115072;28;20898;-65
2022/08/24 04:31:49;;;;;;;1.77;1.67;;;24.50;94.60;;;;;;5121653;28;20439;-66
2022/08/24 04:34:19;;;;;;;2.10;1.93;;;24.40;94.40;;;;;;5122713;28;20503;-66
2022/08/24 04:36:50;;;;;;;1.83;1.73;;;24.40;94.60;;;;;;5120785;28;20467;-67
2022/08/24 04:39:21;;;;;;;1.80;1.70;;;24.40;94.60;;;;;;5093077;28;20474;-67
2022/08/24 04:41:56;;;;;;;2.00;1.80;;;24.30;95.40;;;;;;5114771;28;20509;-67
2022/08/24 04:44:32;;;;;;;1.83;1.37;;;24.10;95.20;;;;;;5092001;28;20474;-69
2022/08/24 04:47:03;;;;;;;1.60;1.50;;;24.10;95.40;;;;;;5103860;28;20458;-67
2022/08/24 04:49:33;;;;;;;1.80;1.40;;;24.00;95.70;;;;;;5109206;28;20463;-68
2022/08/24 04:52:06;;;;;;;1.50;1.40;;;24.00;95.80;;;;;;5102050;28;20458;-67
2022/08/24 04:54:38;;;;;;;1.60;1.50;;;23.90;96.30;;;;;;5109686;28;20573;-68
2022/08/24 04:57:10;;;;;;;1.60;1.50;;;23.80;96.40;;;;;;5105571;28;20497;-68
2022/08/24 04:59:48;;;;;;;1.70;1.60;;;23.70;96.70;;;;;;5101363;28;20473;-68
2022/08/24 05:02:19;;;;;;;1.47;1.37;;;23.70;97.20;;;;;;5110455;28;20452;-67
2022/08/24 05:04:50;;;;;;;1.90;1.60;;;23.60;97.40;;;;;;5098969;28;20492;-69
2022/08/24 05:07:21;;;;;;;1.57;1.47;;;23.50;97.70;;;;;;5120881;28;20513;-68
2022/08/24 05:09:52;;;;;;;1.50;1.40;;;23.50;98.00;;;;;;5098467;28;20457;-68
2022/08/24 05:12:24;;;;;;;2.50;1.70;;;23.40;98.20;;;;;;5103949;28;20489;-68
2022/08/24 05:14:55;;;;;;;1.70;1.50;;;23.40;98.10;;;;;;5114687;28;20450;-69
2022/08/24 05:17:27;;;;;;;1.40;1.30;;;23.30;98.50;;;;;;5102246;28;20459;-67
2022/08/24 05:19:59;;;;;;;1.60;1.47;;;23.20;98.80;;;;;;5105913;28;20477;-69
2022/08/24 05:22:29;;;;;;;1.43;1.33;;;23.20;99.30;;;;;;5123674;28;20461;-70
2022/08/24 05:25:01;;;;;;;2.10;2.00;;;23.20;99.30;;;;;;5109497;28;20462;-68
2022/08/24 05:27:34;;;;;;;1.40;1.30;;;23.10;99.90;;;;;;5112767;28;20459;-68
2022/08/24 05:30:06;;;;;;;1.60;1.50;;;23.00;99.90;;;;;;5108768;28;20487;-68
2022/08/24 05:32:37;;;;;;;1.60;1.50;;;22.90;99.90;;;;;;5106601;28;20458;-68
2022/08/24 05:35:08;;;;;;;1.40;1.30;;;22.70;99.90;;;;;;5118117;28;20469;-68
2022/08/24 05:37:42;;;;;;;1.67;1.50;;;22.70;99.90;;;;;;5123298;28;20456;-68
2022/08/24 05:40:15;;;;;;;1.70;1.50;;;22.60;99.90;;;;;;5105642;28;20494;-68
2022/08/24 05:42:48;;;;;;;1.50;1.40;;;22.50;99.90;;;;;;5111071;28;20568;-68
2022/08/24 05:45:18;;;;;;;1.50;1.40;;;22.50;99.90;;;;;;5100991;28;20472;-68
2022/08/24 05:47:49;;;;;;;1.40;1.30;;;22.40;99.90;;;;;;5114164;28;20588;-68
2022/08/24 05:50:20;;;;;;;1.70;1.60;;;22.40;99.90;;;;;;5108990;28;20453;-68
2022/08/24 05:52:51;;;;;;;1.47;1.37;;;22.30;99.90;;;;;;5123341;28;20446;-68
2022/08/24 05:55:21;;;;;;;1.60;1.50;;;22.30;99.90;;;;;;5122973;28;20454;-68
2022/08/24 05:57:55;;;;;;;1.30;1.20;;;22.20;99.90;;;;;;5119441;28;20469;-68
2022/08/24 06:00:26;;;;;;;1.50;1.40;;;22.20;99.90;;;;;;5104518;28;20477;-68
2022/08/24 06:02:58;;;;;;;1.40;1.30;;;22.10;99.90;;;;;;5108790;28;20467;-68
2022/08/24 06:05:28;;;;;;;1.37;1.27;;;22.10;99.90;;;;;;5109823;28;20462;-68
2022/08/24 06:07:59;;;;;;;1.40;1.30;;;22.10;99.90;;;;;;5108173;28;20457;-68
2022/08/24 06:10:30;;;;;;;1.97;1.77;;;22.10;99.90;;;;;;5105302;28;20457;-68
2022/08/24 06:13:07;;;;;;;1.50;1.40;;;22.00;99.90;;;;;;5105481;28;20534;-69
2022/08/24 06:15:38;;;;;;;1.50;1.40;;;22.00;99.90;;;;;;5101606;28;20433;-68
2022/08/24 06:18:10;;;;;;;1.47;1.37;;;22.00;99.90;;;;;;5103264;28;20461;-68
2022/08/24 06:20:42;;;;;;;1.63;1.53;;;22.00;99.90;;;;;;5099914;28;20495;-68
2022/08/24 06:23:15;;;;;;;2.20;1.43;;;22.00;99.90;;;;;;5108277;28;20497;-68
2022/08/24 06:28:34;;;;;;;1.63;1.53;;;22.00;99.90;;;;;;5123708;28;20460;-68
2022/08/24 06:31:06;;;;;;;2.10;1.90;;;21.90;99.90;;;;;;5110072;28;20455;-68
2022/08/24 06:33:37;;;;;;;1.53;1.43;;;21.90;99.90;;;;;;5106874;28;20466;-68
2022/08/24 06:36:09;;;;;;;3.57;1.80;;;21.90;99.90;;;;;;5094807;28;20466;-69
2022/08/24 06:38:40;;;;;;;1.70;1.60;;;21.80;99.90;;;;;;5103452;28;20455;-68
2022/08/24 06:41:14;;;;;;;1.40;1.30;;;21.80;99.90;;;;;;5104615;28;20508;-68
2022/08/24 06:43:46;;;;;;;1.60;1.23;;;21.80;99.90;;;;;;5115565;28;20451;-68
2022/08/24 06:46:17;;;;;;;1.23;1.20;;;21.70;99.90;;;;;;5108165;28;20446;-68
2022/08/24 06:48:53;;;;;;;1.60;1.50;;;21.70;99.90;;;;;;5116407;28;20456;-68
2022/08/24 06:51:24;;;;;;;1.87;1.53;;;21.60;99.90;;;;;;5108133;28;20585;-68
2022/08/24 06:53:56;;;;;;;1.73;1.63;;;21.60;99.90;;;;;;5105053;28;20464;-68
2022/08/24 06:56:27;;;;;;;1.50;1.40;;;21.50;99.90;;;;;;5102623;28;20485;-69
2022/08/24 06:59:02;;;;;;;2.07;1.50;;;21.50;99.90;;;;;;5102706;28;20458;-69
2022/08/24 07:01:33;;;;;;;1.70;1.60;;;21.50;99.90;;;;;;5089734;28;20472;-68
2022/08/24 07:04:04;;;;;;;1.87;1.63;;;21.40;99.90;;;;;;5099686;28;20478;-68
2022/08/24 07:06:36;;;;;;;2.10;1.90;;;21.30;99.90;;;;;;5101657;28;20496;-68
2022/08/24 07:09:07;;;;;;;1.60;1.50;;;21.30;99.90;;;;;;5113389;28;20437;-68
2022/08/24 07:11:38;;;;;;;1.90;1.80;;;21.20;99.90;;;;;;5122807;28;20461;-69
2022/08/24 07:14:10;;;;;;;2.20;2.00;;;21.20;99.90;;;;;;5111410;28;20477;-68
2022/08/24 07:16:41;;;;;;;2.23;1.30;;;21.20;99.90;;;;;;5107858;28;20447;-68
2022/08/24 07:19:12;;;;;;;2.03;1.83;;;21.20;99.90;;;;;;5117604;28;20462;-68
2022/08/24 07:21:43;;;;;;;1.73;1.63;;;21.10;99.90;;;;;;5107207;28;20464;-68
2022/08/24 07:24:14;;;;;;;2.10;1.83;;;21.10;99.90;;;;;;5096997;28;20462;-69
2022/08/24 07:26:45;;;;;;;3.17;1.90;;;21.10;99.90;;;;;;5089007;28;20455;-69
2022/08/24 07:29:18;;;;;;;2.20;1.77;;;21.00;99.90;;;;;;5105835;28;20429;-69
2022/08/24 07:32:08;;;;;;;1.40;1.30;;;21.00;99.90;;;;;;5100844;28;20615;-69
2022/08/24 07:34:39;;;;;;;1.70;1.60;;;20.90;99.90;;;;;;5103621;28;20457;-69
2022/08/24 07:37:10;;;;;;;1.90;1.80;;;20.80;99.90;;;;;;5105479;28;20463;-68
2022/08/24 07:39:41;;;;;;;2.07;1.90;;;20.70;99.90;;;;;;5099959;28;20469;-69
2022/08/24 07:42:12;;;;;;;1.90;1.80;;;20.70;99.90;;;;;;5100121;28;20558;-69
2022/08/24 07:44:56;;;;;;;1.80;1.70;;;20.80;99.90;;;;;;5107550;28;20514;-69
2022/08/24 07:47:27;;;;;;;2.40;2.20;;;20.80;99.90;;;;;;5102841;28;21099;-69
2022/08/24 07:50:19;;;;;;;1.93;1.60;;;20.70;99.90;;;;;;5112566;28;20503;-69
2022/08/24 07:52:50;;;;;;;2.23;2.03;;;20.70;99.90;;;;;;5102650;28;20465;-68
2022/08/24 07:55:21;;;;;;;1.73;1.63;;;20.60;99.90;;;;;;5109311;28;20937;-68
2022/08/24 07:57:52;;;;;;;1.63;1.43;;;20.60;99.90;;;;;;5101366;28;20470;-69
2022/08/24 08:00:24;;;;;;;2.17;2.07;;;20.60;99.90;;;;;;5101196;28;20469;-68
2022/08/24 08:02:55;;;;;;;2.07;1.80;;;20.50;99.90;;;;;;5095168;28;20483;-69
2022/08/24 08:05:26;;;;;;;2.30;2.10;;;20.50;99.90;;;;;;5113407;28;20473;-68
2022/08/24 08:07:57;;;;;;;2.00;1.83;;;20.40;99.90;;;;;;5096423;28;20463;-68
2022/08/24 08:10:29;;;;;;;1.83;1.73;;;20.40;99.90;;;;;;5092816;28;20420;-68
2022/08/24 08:13:01;;;;;;;1.80;1.70;;;20.50;99.90;;;;;;5089688;28;20467;-68
2022/08/24 08:15:33;;;;;;;2.00;1.90;;;20.40;99.90;;;;;;5104128;28;20432;-68
2022/08/24 08:18:04;;;;;;;2.23;1.87;;;20.40;99.90;;;;;;5109429;28;20449;-68
2022/08/24 08:20:37;;;;;;;2.10;1.80;;;20.30;99.90;;;;;;5102423;28;20455;-68
2022/08/24 08:25:58;;;;;;;2.27;1.77;;;20.30;99.90;;;;;;5108632;28;20465;-68
2022/08/24 08:28:31;;;;;;;1.63;1.53;;;20.30;99.90;;;;;;5099093;28;20470;-68
2022/08/24 08:31:07;;;;;;;2.20;2.00;;;20.20;99.90;;;;;;5110285;28;20931;-69
2022/08/24 08:33:37;;;;;;;1.93;1.80;;;20.20;99.90;;;;;;5112416;28;20445;-69
2022/08/24 08:36:11;;;;;;;1.60;1.50;;;20.10;99.90;;;;;;5106427;28;20903;-68
2022/08/24 08:38:43;;;;;;;2.10;1.90;;;20.00;99.90;;;;;;5114545;28;20490;-68
2022/08/24 08:41:49;;;;;;;2.50;2.30;;;20.00;99.90;;;;;;5106740;28;20468;-68
2022/08/24 08:44:34;;;;;;;2.00;1.90;;;19.90;99.90;;;;;;5095519;28;20610;-68
2022/08/24 08:47:22;;;;;;;2.10;1.87;;;19.90;99.90;;;;;;5117922;28;20438;-68
2022/08/24 08:50:06;;;;;;;1.87;1.77;;;20.00;99.90;;;;;;5106443;28;20463;-68
2022/08/24 08:53:17;;;;;;;1.83;1.73;;;19.90;99.90;;;;;;5112897;28;20495;-68
2022/08/24 08:55:54;;;;;;;1.93;1.83;;;19.80;99.90;;;;;;5111733;28;20477;-68
2022/08/24 08:58:47;;;;;;;1.63;1.53;;;19.70;99.90;;;;;;5119761;28;20457;-69
2022/08/24 09:01:33;;;;;;;4.47;1.83;;;19.70;99.90;;;;;;5105774;28;20487;-68
2022/08/24 09:04:44;;;;;;;2.30;2.10;;;19.70;99.90;;;;;;5117697;28;20576;-68
2022/08/24 09:07:31;;;;;;;1.73;1.63;;;19.70;99.90;;;;;;5110991;28;20559;-68
2022/08/24 09:10:37;;;;;;;2.23;2.03;;;19.70;99.90;;;;;;5107379;28;20434;-68
2022/08/24 09:13:33;;;;;;;2.27;2.00;;;19.60;99.90;;;;;;5123280;28;20443;-67
2022/08/24 09:16:21;;;;;;;1.87;1.77;;;19.50;99.90;;;;;;5111423;28;20576;-68
2022/08/24 09:19:03;;;;;;;2.27;2.07;;;19.50;99.90;;;;;;5119936;28;20496;-68
2022/08/24 09:21:50;;;;;;;1.80;1.67;;;19.50;99.90;;;;;;5099701;28;20436;-67
2022/08/24 09:24:46;;;;;;;2.00;1.80;;;19.50;99.90;;;;;;5112445;28;20429;-67
2022/08/24 09:27:27;;;;;;;2.47;2.27;;;19.50;99.90;;;;;;5085854;28;20584;-67
2022/08/24 09:30:08;;;;;;;2.83;2.63;;;19.50;99.90;;;;;;5115934;28;20461;-68
2022/08/24 09:32:57;;;;;;;1.63;1.53;;;19.40;99.90;;;;;;5122265;28;20424;-68
2022/08/24 09:35:38;;;;;;;1.97;1.60;;;19.40;99.90;;;;;;5107234;28;20433;-67
2022/08/24 09:38:22;;;;;;;2.00;1.90;;;19.20;99.90;;;;;;5094841;28;20926;-68
2022/08/24 09:41:18;;;;;;;2.63;2.10;;;19.20;99.90;;;;;;5097683;28;20436;-68
2022/08/24 09:44:20;;;;;;;2.00;1.90;;;19.10;99.90;;;;;;5086194;28;20491;-67
2022/08/24 09:47:23;;;;;;;1.87;1.70;;;19.10;99.90;;;;;;5093085;28;20429;-67
2022/08/24 09:50:34;;;;;;;2.00;1.87;;;19.10;99.90;;;;;;5105434;28;20477;-68
2022/08/24 09:53:43;;;;;;;2.27;2.07;;;19.10;99.90;;;;;;5052438;28;20464;-68
2022/08/24 09:56:32;;;;;;;2.07;1.90;;;19.10;99.90;;;;;;4981634;28;20465;-67
2022/08/24 09:59:17;;;;;;;2.37;2.17;;;19.10;99.90;;;;;;4982763;28;20568;-68
2022/08/24 10:01:58;;;;;;;1.70;1.60;;;19.00;99.90;;;;;;4986863;28;20463;-68
2022/08/24 10:04:35;;;;;;;2.13;1.93;;;19.00;99.90;;;;;;4981267;28;20442;-68
2022/08/24 10:07:15;;;;;;;1.73;1.63;;;19.00;99.90;;;;;;4968603;28;20475;-68
2022/08/24 10:10:14;;;;;;;2.20;2.00;;;19.00;99.90;;;;;;4982486;28;20460;-68
2022/08/24 10:12:55;;;;;;;2.40;2.20;;;18.90;99.90;;;;;;4986706;28;20471;-68
2022/08/24 10:15:32;;;;;;;2.40;2.20;;;18.90;99.90;;;;;;4982975;28;20447;-68
2022/08/24 10:18:21;;;;;;;3.03;2.17;;;18.90;99.90;;;;;;4982637;28;20430;-68
2022/08/24 10:21:14;;;;;;;2.40;1.87;;;18.80;99.90;;;;;;4980456;28;20573;-68
2022/08/24 10:24:23;;;;;;;1.83;1.70;;;18.80;99.90;;;;;;4985794;28;20470;-68
2022/08/24 10:27:25;;;;;;;3.00;2.20;;;18.80;99.90;;;;;;4979115;28;20649;-68
2022/08/24 10:30:15;;;;;;;2.70;2.50;;;18.70;99.90;;;;;;5074691;28;20461;-68
2022/08/24 10:33:12;;;;;;;2.33;2.13;;;18.70;99.90;;;;;;5124113;28;20490;-68
2022/08/24 10:36:13;;;;;;;3.07;1.90;;;18.70;99.90;;;;;;5123171;28;20461;-68
2022/08/24 10:45:27;;;;;;;2.37;2.17;;;18.60;99.90;;;;;;5089925;28;20457;-67
2022/08/24 10:48:16;;;;;;;2.10;1.90;;;18.60;99.90;;;;;;5123124;28;20424;-67
2022/08/24 10:50:54;;;;;;;2.23;2.03;;;18.60;99.90;;;;;;5122991;28;20458;-67
2022/08/24 10:53:27;;;;;;;1.87;1.70;;;18.60;99.90;;;;;;5123675;28;20868;-67
2022/08/24 10:56:11;;;;;;;2.80;2.13;;;18.60;99.90;;;;;;5111904;28;20435;-68
2022/08/24 10:58:58;;;;;;;2.47;2.27;;;18.50;99.90;;;;;;5123853;27;20408;-68
2022/08/24 11:01:34;;;;;;;2.37;2.17;;;18.50;99.90;;;;;;5102211;28;20437;-68
2022/08/24 11:04:09;;;;;;;3.67;2.33;;;18.40;99.90;;;;;;5091457;28;20484;-68
2022/08/24 11:06:42;;;;;;;2.67;1.90;;;18.40;99.90;;;;;;5090620;28;20459;-67
2022/08/24 11:09:16;;;;;;;2.63;2.10;;;18.30;99.90;;;;;;5116886;28;20484;-68
2022/08/24 11:11:51;;;;;;;2.67;2.47;;;18.30;99.90;;;;;;5114812;28;20449;-68
2022/08/24 11:14:27;;;;;;;3.17;2.67;;;18.40;99.90;;;;;;5112252;28;20459;-68
2022/08/24 11:17:17;;;;;;;2.77;2.53;;;18.40;99.90;;;;;;5108749;28;20432;-68
2022/08/24 11:19:48;;;;;;;1.87;1.70;;;18.20;99.90;;;;;;5102469;28;20469;-68
2022/08/24 11:22:39;;;;;;;2.40;2.20;;;18.20;99.90;;;;;;5089669;28;20433;-68
2022/08/24 11:25:20;;;;;;;2.47;2.27;;;18.20;99.90;;;;;;5118910;28;20453;-68
2022/08/24 11:27:58;;;;;;;2.27;2.07;;;18.20;99.90;;;;;;5085049;28;20448;-68
2022/08/24 11:30:31;;;;;;;2.03;1.83;;;18.20;99.90;;;;;;5096370;28;20525;-68
2022/08/24 11:33:05;;;;;;;2.33;2.13;;;18.20;99.90;;;;;;5103173;28;20498;-68
2022/08/24 11:35:39;;;;;;;3.20;2.77;;;18.20;99.90;;;;;;5104350;28;21000;-68
2022/08/24 11:38:16;;;;;;;2.60;2.40;;;18.10;99.90;;;;;;5110203;28;20461;-68
2022/08/24 11:40:53;;;;;;;2.23;2.03;;;18.00;99.90;;;;;;5111705;28;20462;-68
2022/08/24 11:43:36;;;;;;;2.53;2.33;;;18.00;99.90;;;;;;5116417;28;20479;-68
2022/08/24 11:46:22;;;;;;;2.23;2.03;;;18.00;99.90;;;;;;5101520;28;20429;-68
2022/08/24 11:49:03;;;;;;;3.70;2.60;;;18.00;99.90;;;;;;5107952;28;20504;-68
2022/08/24 11:51:45;;;;;;;2.13;2.03;;;17.90;99.90;;;;;;5102732;28;20428;-67
2022/08/24 11:54:23;;;;;;;2.87;2.53;;;18.00;99.90;;;;;;5110366;28;20425;-68
2022/08/24 11:57:08;;;;;;;2.17;1.97;;;17.90;99.90;;;;;;5100101;28;20459;-68
2022/08/24 11:59:49;;;;;;;2.00;1.80;;;17.90;99.90;;;;;;5087804;28;20455;-68
2022/08/24 12:02:28;;;;;;;3.20;2.87;;;17.90;99.90;;;;;;5111748;28;20577;-68
2022/08/24 12:05:06;;;;;;;2.53;2.30;;;17.90;99.90;;;;;;5106638;28;20975;-68
2022/08/24 12:07:51;;;;;;;2.60;2.40;;;17.90;99.90;;;;;;5098465;28;20451;-67
2022/08/24 12:10:31;;;;;;;2.47;2.27;;;17.90;99.90;;;;;;5102697;28;20448;-68
2022/08/24 12:13:07;;;;;;;2.60;2.37;;;17.80;99.90;;;;;;5103800;28;20452;-68
2022/08/24 12:15:45;;;;;;;3.20;2.77;;;17.70;99.90;;;;;;5115715;28;20449;-68
2022/08/24 12:18:28;;;;;;;3.40;2.73;;;17.70;99.90;;;;;;5100807;28;20452;-68
2022/08/24 12:21:01;;;;;;;2.30;2.10;;;17.70;99.90;;;;;;5106744;28;20900;-67
2022/08/24 12:23:38;;;;;;;2.53;2.20;;;17.70;99.90;;;;;;5117988;28;20547;-68
2022/08/24 12:26:14;;;;;;;2.57;2.37;;;17.80;99.90;;;;;;5113753;28;20876;-68
2022/08/24 12:28:49;;;;;;;3.17;2.80;;;17.80;99.90;;;;;;5117750;28;20495;-68
2022/08/24 12:31:29;;;;;;;2.50;2.30;;;17.70;99.90;;;;;;5114019;28;20486;-68
2022/08/24 12:34:05;;;;;;;2.77;2.57;;;17.60;99.90;;;;;;5116343;28;20488;-68
2022/08/24 12:36:49;;;;;;;2.80;2.40;;;17.60;99.90;;;;;;5116521;28;20457;-68
2022/08/24 12:39:23;;;;;;;3.20;2.70;;;17.60;99.90;;;;;;5106374;28;20453;-68
2022/08/24 12:42:03;;;;;;;2.60;2.40;;;17.60;99.90;;;;;;5112479;28;20485;-68
2022/08/24 12:44:43;;;;;;;2.50;2.30;;;17.50;99.90;;;;;;5104647;28;20804;-68
2022/08/24 12:47:19;;;;;;;2.67;2.47;;;17.50;99.90;;;;;;5088852;28;20425;-68
2022/08/24 12:49:53;;;;;;;2.93;2.67;;;17.50;99.90;;;;;;5113547;28;20432;-67
2022/08/24 12:52:48;;;;;;;2.73;2.50;;;17.60;99.90;;;;;;5100032;28;20470;-67
2022/08/24 12:55:49;;;;;;;2.77;2.57;;;17.50;99.90;;;;;;5112381;28;21028;-68
2022/08/24 12:58:51;;;;;;;2.53;2.33;;;17.60;99.90;;;;;;5095385;28;20513;-67
2022/08/24 13:01:26;;;;;;;2.90;2.60;;;17.50;99.90;;;;;;5110838;28;20432;-68
2022/08/24 13:04:30;;;;;;;3.00;2.73;;;17.40;99.90;;;;;;5110723;28;20493;-66
2022/08/24 13:07:06;;;;;;;3.30;2.70;;;17.40;99.90;;;;;;5122974;28;20765;-67
2022/08/24 13:09:42;;;;;;;2.73;2.30;;;17.40;99.90;;;;;;5105379;28;20418;-67
2022/08/24 13:12:53;;;;;;;3.37;2.73;;;17.40;99.90;;;;;;5103426;28;20477;-66
2022/08/24 13:15:46;;;;;;;3.60;3.07;;;17.30;99.90;;;;;;5102336;28;20474;-67
2022/08/24 13:18:58;;;;;;;4.60;2.67;;;17.20;99.90;;;;;;5096811;28;20455;-67
2022/08/24 13:21:43;;;;;;;2.93;2.70;;;17.20;99.90;;;;;;5029335;28;20439;-66
2022/08/24 13:24:52;;;;;;;3.07;2.77;;;17.30;99.90;;;;;;5036581;28;20511;-66
2022/08/24 13:28:13;;;;;;;4.40;3.30;;;17.20;99.90;;;;;;5041583;28;20424;-66
2022/08/24 13:31:14;;;;;;;2.63;2.40;;;17.20;99.90;;;;;;5038675;28;20435;-67
2022/08/24 13:33:47;;;;;;;2.70;2.50;;;17.20;99.90;;;;;;5022821;28;20444;-66
2022/08/24 13:36:43;;;;;;;3.80;3.30;;;17.20;99.90;;;;;;5027970;28;20461;-67
2022/08/24 13:39:27;;;;;;;2.70;2.33;;;17.30;99.90;;;;;;5009140;28;20482;-66
2022/08/24 13:42:10;;;;;;;2.93;2.60;;;17.30;99.90;;;;;;5016980;28;20486;-67
2022/08/24 13:45:08;;;;;;;3.30;3.00;;;17.30;99.90;;;;;;5037471;28;20505;-66
2022/08/24 13:48:03;;;;;;;2.77;2.30;;;17.30;99.90;;;;;;5027353;28;20453;-66
2022/08/24 13:50:42;;;;;;;4.10;2.70;;;17.30;99.90;;;;;;5038016;28;20444;-66
2022/08/24 13:53:46;;;;;;;3.63;2.87;;;17.30;99.90;;;;;;5032003;28;20445;-66
2022/08/24 13:56:39;;;;;;;3.07;2.77;;;17.40;99.90;;;;;;5051820;28;20480;-67
2022/08/24 13:59:17;;;;;;;2.90;2.60;;;17.40;99.90;;;;;;5124522;28;20490;-66